sensor_id;sensor_type;location;lat;lon;timestamp;pressure;altitude;pressure_sealevel;temperature;humidity
62524;BME280;53689;56.878;60.672;2023-06-10T00:00:40;98232.22;;;20.03;35.13
62524;BME280;53689;56.878;60.672;2023-06-10T00:03:07;98234.06;;;20.03;35.10
62524;BME280;53689;56.878;60.672;2023-06-10T00:05:35;98227.38;;;20.14;35.24
62524;BME280;53689;56.878;60.672;2023-06-10T00:08:04;98235.56;;;20.05;35.57
62524;BME280;53689;56.878;60.672;2023-06-10T00:10:31;98228.97;;;20.08;35.13
62524;BME280;53689;56.878;60.672;2023-06-10T00:12:59;98218.69;;;20.12;35.26
62524;BME280;53689;56.878;60.672;2023-06-10T00:15:26;98213.47;;;20.10;35.38
62524;BME280;53689;56.878;60.672;2023-06-10T00:17:53;98211.44;;;20.12;35.26
62524;BME280;53689;56.878;60.672;2023-06-10T00:20:21;98220.44;;;20.04;35.18
62524;BME280;53689;56.878;60.672;2023-06-10T00:22:49;98211.25;;;20.14;35.31
62524;BME280;53689;56.878;60.672;2023-06-10T00:25:18;98207.44;;;20.23;35.22
62524;BME280;53689;56.878;60.672;2023-06-10T00:27:45;98197.31;;;20.25;34.97
62524;BME280;53689;56.878;60.672;2023-06-10T00:30:13;98203.47;;;20.41;34.72
62524;BME280;53689;56.878;60.672;2023-06-10T00:32:40;98206.97;;;20.63;34.89
62524;BME280;53689;56.878;60.672;2023-06-10T00:35:08;98208.16;;;21.26;33.68
62524;BME280;53689;56.878;60.672;2023-06-10T00:37:36;98208.22;;;21.39;33.40
62524;BME280;53689;56.878;60.672;2023-06-10T00:40:04;98203.00;;;20.80;34.40
62524;BME280;53689;56.878;60.672;2023-06-10T00:42:33;98199.03;;;21.27;33.67
62524;BME280;53689;56.878;60.672;2023-06-10T00:45:00;98200.31;;;21.38;33.52
62524;BME280;53689;56.878;60.672;2023-06-10T00:47:28;98212.94;;;21.02;34.55
62524;BME280;53689;56.878;60.672;2023-06-10T00:49:56;98209.22;;;21.03;34.13
62524;BME280;53689;56.878;60.672;2023-06-10T00:52:24;98200.19;;;20.23;36.02
62524;BME280;53689;56.878;60.672;2023-06-10T00:54:54;98209.06;;;20.02;36.28
62524;BME280;53689;56.878;60.672;2023-06-10T00:57:21;98212.00;;;20.07;36.10
62524;BME280;53689;56.878;60.672;2023-06-10T00:59:51;98210.16;;;19.93;36.10
62524;BME280;53689;56.878;60.672;2023-06-10T01:02:18;98214.22;;;19.89;36.28
62524;BME280;53689;56.878;60.672;2023-06-10T01:04:46;98211.00;;;19.93;35.91
62524;BME280;53689;56.878;60.672;2023-06-10T01:07:17;98212.09;;;19.99;35.75
62524;BME280;53689;56.878;60.672;2023-06-10T01:09:47;98201.84;;;20.24;35.36
62524;BME280;53689;56.878;60.672;2023-06-10T01:12:19;98203.69;;;20.02;35.50
62524;BME280;53689;56.878;60.672;2023-06-10T01:14:55;98202.84;;;20.02;35.50
62524;BME280;53689;56.878;60.672;2023-06-10T01:17:23;98198.00;;;20.12;35.48
62524;BME280;53689;56.878;60.672;2023-06-10T01:19:55;98202.16;;;20.15;35.47
62524;BME280;53689;56.878;60.672;2023-06-10T01:22:25;98198.91;;;20.19;35.71
62524;BME280;53689;56.878;60.672;2023-06-10T01:24:52;98197.03;;;20.20;35.36
62524;BME280;53689;56.878;60.672;2023-06-10T01:27:21;98199.16;;;20.24;35.31
62524;BME280;53689;56.878;60.672;2023-06-10T01:29:50;98201.66;;;20.48;35.00
62524;BME280;53689;56.878;60.672;2023-06-10T01:32:21;98200.84;;;20.26;35.68
62524;BME280;53689;56.878;60.672;2023-06-10T01:34:50;98197.59;;;20.15;35.29
62524;BME280;53689;56.878;60.672;2023-06-10T01:37:19;98193.25;;;20.14;35.56
62524;BME280;53689;56.878;60.672;2023-06-10T01:39:50;98193.13;;;20.22;35.42
62524;BME280;53689;56.878;60.672;2023-06-10T01:42:18;98193.50;;;19.98;35.69
62524;BME280;53689;56.878;60.672;2023-06-10T01:44:46;98192.66;;;19.97;35.63
62524;BME280;53689;56.878;60.672;2023-06-10T01:47:13;98196.72;;;20.08;35.86
62524;BME280;53689;56.878;60.672;2023-06-10T01:49:41;98186.75;;;20.23;35.49
62524;BME280;53689;56.878;60.672;2023-06-10T01:52:08;98196.03;;;20.21;35.80
62524;BME280;53689;56.878;60.672;2023-06-10T01:54:36;98192.84;;;20.32;35.74
62524;BME280;53689;56.878;60.672;2023-06-10T01:57:06;98191.19;;;20.31;35.38
62524;BME280;53689;56.878;60.672;2023-06-10T01:59:33;98196.34;;;20.33;35.18
62524;BME280;53689;56.878;60.672;2023-06-10T02:02:01;98200.44;;;20.50;35.66
62524;BME280;53689;56.878;60.672;2023-06-10T02:04:31;98197.75;;;20.50;35.19
62524;BME280;53689;56.878;60.672;2023-06-10T02:07:00;98189.13;;;20.33;35.47
62524;BME280;53689;56.878;60.672;2023-06-10T02:09:28;98183.34;;;20.36;36.04
62524;BME280;53689;56.878;60.672;2023-06-10T02:11:57;98188.56;;;20.38;35.82
62524;BME280;53689;56.878;60.672;2023-06-10T02:14:25;98189.69;;;20.50;35.49
62524;BME280;53689;56.878;60.672;2023-06-10T02:16:53;98188.91;;;20.13;35.90
62524;BME280;53689;56.878;60.672;2023-06-10T02:19:20;98188.44;;;20.09;35.92
62524;BME280;53689;56.878;60.672;2023-06-10T02:21:48;98190.38;;;19.94;36.11
62524;BME280;53689;56.878;60.672;2023-06-10T02:24:16;98183.47;;;20.06;36.06
62524;BME280;53689;56.878;60.672;2023-06-10T02:26:43;98183.47;;;19.91;36.08
62524;BME280;53689;56.878;60.672;2023-06-10T02:29:10;98180.13;;;20.04;36.11
62524;BME280;53689;56.878;60.672;2023-06-10T02:31:40;98172.06;;;20.04;36.13
62524;BME280;53689;56.878;60.672;2023-06-10T02:34:08;98173.63;;;20.14;36.30
62524;BME280;53689;56.878;60.672;2023-06-10T02:36:35;98178.28;;;19.90;36.35
62524;BME280;53689;56.878;60.672;2023-06-10T02:39:02;98169.34;;;19.82;36.89
62524;BME280;53689;56.878;60.672;2023-06-10T02:41:31;98178.38;;;19.81;37.21
62524;BME280;53689;56.878;60.672;2023-06-10T02:43:59;98175.50;;;19.98;36.54
62524;BME280;53689;56.878;60.672;2023-06-10T02:46:27;98170.88;;;19.92;36.51
62524;BME280;53689;56.878;60.672;2023-06-10T02:48:56;98175.56;;;20.05;36.61
62524;BME280;53689;56.878;60.672;2023-06-10T02:51:24;98177.91;;;19.93;36.73
62524;BME280;53689;56.878;60.672;2023-06-10T02:53:57;98183.66;;;19.90;36.54
62524;BME280;53689;56.878;60.672;2023-06-10T02:56:24;98184.03;;;19.87;37.01
62524;BME280;53689;56.878;60.672;2023-06-10T02:58:53;98171.06;;;20.05;36.27
62524;BME280;53689;56.878;60.672;2023-06-10T03:01:22;98176.63;;;19.89;36.72
62524;BME280;53689;56.878;60.672;2023-06-10T03:04:04;98172.31;;;20.09;36.35
62524;BME280;53689;56.878;60.672;2023-06-10T03:06:33;98172.06;;;20.04;36.94
62524;BME280;53689;56.878;60.672;2023-06-10T03:09:11;98169.38;;;20.04;36.42
62524;BME280;53689;56.878;60.672;2023-06-10T03:11:40;98173.56;;;20.07;36.67
62524;BME280;53689;56.878;60.672;2023-06-10T03:14:08;98159.47;;;19.90;36.44
62524;BME280;53689;56.878;60.672;2023-06-10T03:16:36;98163.44;;;20.09;36.66
62524;BME280;53689;56.878;60.672;2023-06-10T03:19:04;98164.25;;;20.09;36.33
62524;BME280;53689;56.878;60.672;2023-06-10T03:21:33;98163.91;;;20.13;36.96
62524;BME280;53689;56.878;60.672;2023-06-10T03:24:00;98166.66;;;20.41;36.10
62524;BME280;53689;56.878;60.672;2023-06-10T03:26:28;98165.16;;;20.38;35.85
62524;BME280;53689;56.878;60.672;2023-06-10T03:28:58;98158.81;;;20.24;36.02
62524;BME280;53689;56.878;60.672;2023-06-10T03:31:26;98163.38;;;20.46;36.04
62524;BME280;53689;56.878;60.672;2023-06-10T03:33:54;98159.16;;;20.58;35.82
62524;BME280;53689;56.878;60.672;2023-06-10T03:36:24;98160.91;;;20.44;35.99
62524;BME280;53689;56.878;60.672;2023-06-10T03:38:51;98160.31;;;20.49;36.12
62524;BME280;53689;56.878;60.672;2023-06-10T03:41:19;98162.16;;;20.48;35.85
62524;BME280;53689;56.878;60.672;2023-06-10T03:43:47;98155.06;;;20.62;36.05
62524;BME280;53689;56.878;60.672;2023-06-10T03:46:14;98147.88;;;20.48;35.83
62524;BME280;53689;56.878;60.672;2023-06-10T03:48:42;98156.88;;;20.33;35.90
62524;BME280;53689;56.878;60.672;2023-06-10T03:51:09;98156.09;;;20.40;36.21
62524;BME280;53689;56.878;60.672;2023-06-10T03:53:38;98158.97;;;20.38;35.92
62524;BME280;53689;56.878;60.672;2023-06-10T03:56:06;98165.63;;;20.64;35.92
62524;BME280;53689;56.878;60.672;2023-06-10T03:58:33;98158.72;;;20.55;36.05
62524;BME280;53689;56.878;60.672;2023-06-10T04:01:02;98159.44;;;20.42;36.13
62524;BME280;53689;56.878;60.672;2023-06-10T04:03:33;98157.47;;;20.79;35.63
62524;BME280;53689;56.878;60.672;2023-06-10T04:06:01;98154.41;;;20.38;36.26
62524;BME280;53689;56.878;60.672;2023-06-10T04:08:29;98156.16;;;20.46;36.32
62524;BME280;53689;56.878;60.672;2023-06-10T04:10:57;98155.81;;;20.56;36.06
62524;BME280;53689;56.878;60.672;2023-06-10T04:13:26;98153.94;;;20.78;36.21
62524;BME280;53689;56.878;60.672;2023-06-10T04:15:57;98149.91;;;20.68;35.90
62524;BME280;53689;56.878;60.672;2023-06-10T04:18:24;98156.44;;;20.80;35.99
62524;BME280;53689;56.878;60.672;2023-06-10T04:20:55;98151.66;;;21.04;35.40
62524;BME280;53689;56.878;60.672;2023-06-10T04:23:24;98150.78;;;20.97;35.04
62524;BME280;53689;56.878;60.672;2023-06-10T04:25:51;98142.97;;;21.09;34.88
62524;BME280;53689;56.878;60.672;2023-06-10T04:28:21;98141.84;;;20.89;35.27
62524;BME280;53689;56.878;60.672;2023-06-10T04:30:48;98139.59;;;20.71;35.47
62524;BME280;53689;56.878;60.672;2023-06-10T04:33:15;98135.88;;;20.94;35.06
62524;BME280;53689;56.878;60.672;2023-06-10T04:35:43;98145.34;;;21.18;34.55
62524;BME280;53689;56.878;60.672;2023-06-10T04:38:13;98147.59;;;20.86;34.88
62524;BME280;53689;56.878;60.672;2023-06-10T04:40:41;98135.81;;;20.65;35.04
62524;BME280;53689;56.878;60.672;2023-06-10T04:43:10;98127.25;;;20.55;35.06
62524;BME280;53689;56.878;60.672;2023-06-10T04:45:39;98127.38;;;20.97;35.13
62524;BME280;53689;56.878;60.672;2023-06-10T04:48:07;98136.34;;;21.04;34.61
62524;BME280;53689;56.878;60.672;2023-06-10T04:50:35;98136.16;;;21.06;34.36
62524;BME280;53689;56.878;60.672;2023-06-10T04:53:03;98122.69;;;21.06;34.36
62524;BME280;53689;56.878;60.672;2023-06-10T04:55:33;98124.81;;;21.11;34.89
62524;BME280;53689;56.878;60.672;2023-06-10T04:58:02;98124.09;;;21.02;34.19
62524;BME280;53689;56.878;60.672;2023-06-10T05:00:29;98124.28;;;21.00;34.45
62524;BME280;53689;56.878;60.672;2023-06-10T05:02:59;98121.72;;;20.85;33.96
62524;BME280;53689;56.878;60.672;2023-06-10T05:05:27;98115.44;;;21.06;34.10
62524;BME280;53689;56.878;60.672;2023-06-10T05:07:55;98113.03;;;21.18;34.35
62524;BME280;53689;56.878;60.672;2023-06-10T05:10:24;98115.63;;;21.40;34.35
62524;BME280;53689;56.878;60.672;2023-06-10T05:12:52;98105.25;;;21.37;33.92
62524;BME280;53689;56.878;60.672;2023-06-10T05:15:19;98106.19;;;21.23;34.05
62524;BME280;53689;56.878;60.672;2023-06-10T05:17:47;98108.28;;;21.20;33.93
62524;BME280;53689;56.878;60.672;2023-06-10T05:20:15;98098.22;;;21.36;34.00
62524;BME280;53689;56.878;60.672;2023-06-10T05:22:42;98107.56;;;21.05;34.10
62524;BME280;53689;56.878;60.672;2023-06-10T05:25:10;98104.81;;;21.33;34.29
62524;BME280;53689;56.878;60.672;2023-06-10T05:27:37;98111.59;;;21.23;33.95
62524;BME280;53689;56.878;60.672;2023-06-10T05:30:05;98099.44;;;21.40;34.15
62524;BME280;53689;56.878;60.672;2023-06-10T05:32:33;98106.03;;;21.31;34.12
62524;BME280;53689;56.878;60.672;2023-06-10T05:35:00;98105.16;;;21.24;34.10
62524;BME280;53689;56.878;60.672;2023-06-10T05:37:29;98101.94;;;21.35;34.17
62524;BME280;53689;56.878;60.672;2023-06-10T05:39:57;98102.72;;;21.29;34.13
62524;BME280;53689;56.878;60.672;2023-06-10T05:42:25;98103.16;;;21.32;34.18
62524;BME280;53689;56.878;60.672;2023-06-10T05:44:52;98099.03;;;21.37;33.84
62524;BME280;53689;56.878;60.672;2023-06-10T05:47:20;98095.72;;;21.34;34.37
62524;BME280;53689;56.878;60.672;2023-06-10T05:49:48;98096.78;;;21.47;34.05
62524;BME280;53689;56.878;60.672;2023-06-10T05:52:16;98097.38;;;21.42;33.63
62524;BME280;53689;56.878;60.672;2023-06-10T05:54:44;98100.13;;;21.49;33.65
62524;BME280;53689;56.878;60.672;2023-06-10T05:57:12;98096.31;;;21.30;34.26
62524;BME280;53689;56.878;60.672;2023-06-10T05:59:39;98098.25;;;21.49;33.93
62524;BME280;53689;56.878;60.672;2023-06-10T06:02:07;98087.75;;;21.19;33.48
62524;BME280;53689;56.878;60.672;2023-06-10T06:04:34;98086.63;;;21.00;33.88
62524;BME280;53689;56.878;60.672;2023-06-10T06:07:02;98092.44;;;21.04;33.73
62524;BME280;53689;56.878;60.672;2023-06-10T06:09:29;98095.44;;;21.23;33.98
62524;BME280;53689;56.878;60.672;2023-06-10T06:11:58;98095.59;;;21.14;34.00
62524;BME280;53689;56.878;60.672;2023-06-10T06:14:25;98100.66;;;20.96;34.05
62524;BME280;53689;56.878;60.672;2023-06-10T06:16:52;98098.84;;;21.03;34.12
62524;BME280;53689;56.878;60.672;2023-06-10T06:19:20;98099.09;;;21.08;33.06
62524;BME280;53689;56.878;60.672;2023-06-10T06:21:47;98087.88;;;20.98;33.74
62524;BME280;53689;56.878;60.672;2023-06-10T06:24:16;98090.28;;;21.21;34.05
62524;BME280;53689;56.878;60.672;2023-06-10T06:26:43;98082.88;;;21.37;33.57
62524;BME280;53689;56.878;60.672;2023-06-10T06:29:13;98086.00;;;21.40;33.69
62524;BME280;53689;56.878;60.672;2023-06-10T06:31:41;98078.50;;;21.29;33.67
62524;BME280;53689;56.878;60.672;2023-06-10T06:34:08;98085.53;;;21.30;33.18
62524;BME280;53689;56.878;60.672;2023-06-10T06:36:36;98079.81;;;21.04;34.11
62524;BME280;53689;56.878;60.672;2023-06-10T06:39:03;98074.75;;;21.30;34.03
62524;BME280;53689;56.878;60.672;2023-06-10T06:41:32;98071.75;;;21.04;33.87
62524;BME280;53689;56.878;60.672;2023-06-10T06:44:00;98081.53;;;21.19;34.13
62524;BME280;53689;56.878;60.672;2023-06-10T06:46:38;98071.03;;;21.31;33.95
62524;BME280;53689;56.878;60.672;2023-06-10T06:49:06;98066.94;;;21.42;33.67
62524;BME280;53689;56.878;60.672;2023-06-10T06:51:34;98072.91;;;21.30;33.14
62524;BME280;53689;56.878;60.672;2023-06-10T06:54:02;98067.69;;;21.22;33.86
62524;BME280;53689;56.878;60.672;2023-06-10T06:56:30;98073.16;;;21.42;33.92
62524;BME280;53689;56.878;60.672;2023-06-10T06:58:58;98066.72;;;21.43;33.35
62524;BME280;53689;56.878;60.672;2023-06-10T07:01:26;98051.44;;;21.57;33.33
62524;BME280;53689;56.878;60.672;2023-06-10T07:03:55;98057.66;;;21.58;33.56
62524;BME280;53689;56.878;60.672;2023-06-10T07:06:23;98054.38;;;21.62;33.56
62524;BME280;53689;56.878;60.672;2023-06-10T07:08:51;98045.44;;;21.55;33.46
62524;BME280;53689;56.878;60.672;2023-06-10T07:11:18;98039.78;;;21.43;33.94
62524;BME280;53689;56.878;60.672;2023-06-10T07:13:46;98037.84;;;21.17;32.95
62524;BME280;53689;56.878;60.672;2023-06-10T07:16:14;98040.59;;;21.30;32.84
62524;BME280;53689;56.878;60.672;2023-06-10T07:18:41;98041.41;;;21.31;33.38
62524;BME280;53689;56.878;60.672;2023-06-10T07:21:10;98038.75;;;21.38;33.18
62524;BME280;53689;56.878;60.672;2023-06-10T07:23:38;98046.63;;;21.39;32.40
62524;BME280;53689;56.878;60.672;2023-06-10T07:26:09;98042.44;;;21.30;32.44
62524;BME280;53689;56.878;60.672;2023-06-10T07:28:36;98041.25;;;21.39;32.58
62524;BME280;53689;56.878;60.672;2023-06-10T07:31:04;98036.97;;;21.58;32.92
62524;BME280;53689;56.878;60.672;2023-06-10T07:33:32;98046.31;;;21.69;32.25
62524;BME280;53689;56.878;60.672;2023-06-10T07:35:59;98040.47;;;21.66;32.98
62524;BME280;53689;56.878;60.672;2023-06-10T07:38:28;98033.28;;;21.73;33.02
62524;BME280;53689;56.878;60.672;2023-06-10T07:40:55;98034.31;;;21.79;33.34
62524;BME280;53689;56.878;60.672;2023-06-10T07:43:23;98025.19;;;21.80;32.90
62524;BME280;53689;56.878;60.672;2023-06-10T07:45:51;98027.69;;;21.81;33.25
62524;BME280;53689;56.878;60.672;2023-06-10T07:48:19;98020.00;;;21.71;33.48
62524;BME280;53689;56.878;60.672;2023-06-10T07:50:46;98025.16;;;21.59;32.62
62524;BME280;53689;56.878;60.672;2023-06-10T07:53:14;98021.47;;;21.67;32.89
62524;BME280;53689;56.878;60.672;2023-06-10T07:55:43;98010.69;;;21.81;32.73
62524;BME280;53689;56.878;60.672;2023-06-10T07:58:11;98019.84;;;21.86;33.03
62524;BME280;53689;56.878;60.672;2023-06-10T08:00:38;98008.84;;;21.74;32.95
62524;BME280;53689;56.878;60.672;2023-06-10T08:03:07;98012.56;;;21.80;32.55
62524;BME280;53689;56.878;60.672;2023-06-10T08:05:35;98000.94;;;21.80;33.00
62524;BME280;53689;56.878;60.672;2023-06-10T08:08:03;98002.00;;;21.85;32.74
62524;BME280;53689;56.878;60.672;2023-06-10T08:10:31;97994.31;;;21.82;33.06
62524;BME280;53689;56.878;60.672;2023-06-10T08:13:01;97996.22;;;21.82;33.47
62524;BME280;53689;56.878;60.672;2023-06-10T08:15:29;97990.78;;;21.75;33.00
62524;BME280;53689;56.878;60.672;2023-06-10T08:17:57;97993.72;;;21.73;33.14
62524;BME280;53689;56.878;60.672;2023-06-10T08:20:25;97994.94;;;21.84;32.38
62524;BME280;53689;56.878;60.672;2023-06-10T08:22:54;97988.13;;;21.88;33.12
62524;BME280;53689;56.878;60.672;2023-06-10T08:25:21;97983.53;;;21.82;33.99
62524;BME280;53689;56.878;60.672;2023-06-10T08:27:49;97975.88;;;21.72;32.83
62524;BME280;53689;56.878;60.672;2023-06-10T08:30:18;97975.88;;;21.86;32.91
62524;BME280;53689;56.878;60.672;2023-06-10T08:32:47;97970.28;;;21.94;33.15
62524;BME280;53689;56.878;60.672;2023-06-10T08:35:15;97968.84;;;21.92;33.05
62524;BME280;53689;56.878;60.672;2023-06-10T08:37:43;97960.13;;;21.89;33.01
62524;BME280;53689;56.878;60.672;2023-06-10T08:40:12;97958.88;;;21.99;33.50
62524;BME280;53689;56.878;60.672;2023-06-10T08:42:42;97954.94;;;21.88;33.02
62524;BME280;53689;56.878;60.672;2023-06-10T08:45:11;97947.06;;;22.00;33.57
62524;BME280;53689;56.878;60.672;2023-06-10T08:47:42;97951.63;;;21.99;32.63
62524;BME280;53689;56.878;60.672;2023-06-10T08:50:13;97960.56;;;21.93;32.83
62524;BME280;53689;56.878;60.672;2023-06-10T08:52:44;97958.28;;;21.97;33.52
62524;BME280;53689;56.878;60.672;2023-06-10T08:55:13;97954.31;;;21.93;33.03
62524;BME280;53689;56.878;60.672;2023-06-10T08:57:42;97949.34;;;21.96;32.76
62524;BME280;53689;56.878;60.672;2023-06-10T09:00:10;97951.44;;;21.94;33.12
62524;BME280;53689;56.878;60.672;2023-06-10T09:02:39;97944.78;;;21.97;32.14
62524;BME280;53689;56.878;60.672;2023-06-10T09:05:08;97948.75;;;21.87;33.23
62524;BME280;53689;56.878;60.672;2023-06-10T09:07:36;97942.28;;;21.95;33.13
62524;BME280;53689;56.878;60.672;2023-06-10T09:10:05;97935.66;;;21.78;33.27
62524;BME280;53689;56.878;60.672;2023-06-10T09:12:34;97934.00;;;21.83;32.87
62524;BME280;53689;56.878;60.672;2023-06-10T09:15:01;97935.47;;;21.86;32.90
62524;BME280;53689;56.878;60.672;2023-06-10T09:17:30;97936.28;;;22.00;32.99
62524;BME280;53689;56.878;60.672;2023-06-10T09:19:59;97933.78;;;21.98;33.29
62524;BME280;53689;56.878;60.672;2023-06-10T09:22:28;97928.78;;;22.09;32.80
62524;BME280;53689;56.878;60.672;2023-06-10T09:25:03;97918.25;;;22.07;32.88
62524;BME280;53689;56.878;60.672;2023-06-10T09:27:32;97912.84;;;22.07;32.65
62524;BME280;53689;56.878;60.672;2023-06-10T09:29:59;97915.13;;;22.10;32.75
62524;BME280;53689;56.878;60.672;2023-06-10T09:32:27;97918.44;;;22.12;33.02
62524;BME280;53689;56.878;60.672;2023-06-10T09:34:55;97915.31;;;22.09;32.94
62524;BME280;53689;56.878;60.672;2023-06-10T09:37:23;97906.41;;;22.15;32.60
62524;BME280;53689;56.878;60.672;2023-06-10T09:40:02;97904.75;;;22.14;33.11
62524;BME280;53689;56.878;60.672;2023-06-10T09:42:32;97908.91;;;22.16;32.84
62524;BME280;53689;56.878;60.672;2023-06-10T09:45:00;97906.63;;;22.20;33.00
62524;BME280;53689;56.878;60.672;2023-06-10T09:47:28;97886.47;;;22.29;32.53
62524;BME280;53689;56.878;60.672;2023-06-10T09:49:56;97899.53;;;22.26;32.64
62524;BME280;53689;56.878;60.672;2023-06-10T09:52:23;97900.34;;;22.26;32.96
62524;BME280;53689;56.878;60.672;2023-06-10T09:54:52;97896.00;;;22.25;32.63
62524;BME280;53689;56.878;60.672;2023-06-10T09:57:21;97896.19;;;22.37;32.49
62524;BME280;53689;56.878;60.672;2023-06-10T09:59:51;97904.50;;;22.29;32.92
62524;BME280;53689;56.878;60.672;2023-06-10T10:02:20;97894.13;;;22.33;32.90
62524;BME280;53689;56.878;60.672;2023-06-10T10:04:47;97886.47;;;22.29;32.81
62524;BME280;53689;56.878;60.672;2023-06-10T10:07:15;97883.94;;;22.35;32.44
62524;BME280;53689;56.878;60.672;2023-06-10T10:09:43;97878.78;;;22.26;32.86
62524;BME280;53689;56.878;60.672;2023-06-10T10:12:12;97883.13;;;22.34;33.02
62524;BME280;53689;56.878;60.672;2023-06-10T10:14:43;97869.19;;;22.44;32.71
62524;BME280;53689;56.878;60.672;2023-06-10T10:17:14;97878.75;;;22.40;32.81
62524;BME280;53689;56.878;60.672;2023-06-10T10:19:43;97860.53;;;22.35;32.37
62524;BME280;53689;56.878;60.672;2023-06-10T10:22:15;97869.03;;;22.39;32.81
62524;BME280;53689;56.878;60.672;2023-06-10T10:24:46;97866.69;;;22.42;32.33
62524;BME280;53689;56.878;60.672;2023-06-10T10:27:17;97870.44;;;22.41;32.77
62524;BME280;53689;56.878;60.672;2023-06-10T10:29:47;97864.84;;;22.43;32.47
62524;BME280;53689;56.878;60.672;2023-06-10T10:32:14;97866.69;;;22.42;32.41
62524;BME280;53689;56.878;60.672;2023-06-10T10:34:46;97858.84;;;22.41;32.62
62524;BME280;53689;56.878;60.672;2023-06-10T10:37:17;97853.84;;;22.38;33.09
62524;BME280;53689;56.878;60.672;2023-06-10T10:39:44;97858.59;;;22.42;32.03
62524;BME280;53689;56.878;60.672;2023-06-10T10:42:12;97853.59;;;22.59;32.50
62524;BME280;53689;56.878;60.672;2023-06-10T10:44:40;97858.63;;;22.49;32.54
62524;BME280;53689;56.878;60.672;2023-06-10T10:47:09;97846.16;;;22.55;32.40
62524;BME280;53689;56.878;60.672;2023-06-10T10:49:38;97853.13;;;22.69;32.37
62524;BME280;53689;56.878;60.672;2023-06-10T10:52:09;97851.56;;;22.55;32.22
62524;BME280;53689;56.878;60.672;2023-06-10T10:54:39;97848.84;;;22.55;32.50
62524;BME280;53689;56.878;60.672;2023-06-10T10:57:10;97849.25;;;22.52;32.04
62524;BME280;53689;56.878;60.672;2023-06-10T11:02:38;97843.66;;;22.53;32.10
62524;BME280;53689;56.878;60.672;2023-06-10T11:05:07;97835.56;;;22.53;32.19
62524;BME280;53689;56.878;60.672;2023-06-10T11:07:36;97828.53;;;22.52;32.31
62524;BME280;53689;56.878;60.672;2023-06-10T11:10:06;97829.91;;;22.68;31.92
62524;BME280;53689;56.878;60.672;2023-06-10T11:12:40;97838.03;;;22.62;32.28
62524;BME280;53689;56.878;60.672;2023-06-10T11:15:09;97837.53;;;22.71;32.41
62524;BME280;53689;56.878;60.672;2023-06-10T11:17:38;97833.44;;;22.62;32.11
62524;BME280;53689;56.878;60.672;2023-06-10T11:23:09;97824.97;;;22.58;32.17
62524;BME280;53689;56.878;60.672;2023-06-10T11:25:38;97829.31;;;22.59;32.68
62524;BME280;53689;56.878;60.672;2023-06-10T11:28:16;97827.69;;;22.58;32.11
62524;BME280;53689;56.878;60.672;2023-06-10T11:30:46;97828.44;;;22.66;32.07
62524;BME280;53689;56.878;60.672;2023-06-10T11:33:25;97822.28;;;22.52;32.14
62524;BME280;53689;56.878;60.672;2023-06-10T11:35:53;97818.09;;;22.63;32.55
62524;BME280;53689;56.878;60.672;2023-06-10T11:38:20;97821.84;;;22.62;32.26
62524;BME280;53689;56.878;60.672;2023-06-10T11:40:48;97808.50;;;22.67;32.60
62524;BME280;53689;56.878;60.672;2023-06-10T11:43:16;97814.78;;;22.61;32.13
62524;BME280;53689;56.878;60.672;2023-06-10T11:45:43;97816.00;;;22.65;32.44
62524;BME280;53689;56.878;60.672;2023-06-10T11:48:12;97810.56;;;22.71;32.65
62524;BME280;53689;56.878;60.672;2023-06-10T11:50:43;97819.16;;;22.94;32.02
62524;BME280;53689;56.878;60.672;2023-06-10T11:53:10;97832.50;;;22.89;31.71
62524;BME280;53689;56.878;60.672;2023-06-10T11:55:41;97851.03;;;22.78;32.00
62524;BME280;53689;56.878;60.672;2023-06-10T11:58:12;97854.19;;;22.68;32.65
62524;BME280;53689;56.878;60.672;2023-06-10T12:00:43;97858.88;;;22.27;35.82
62524;BME280;53689;56.878;60.672;2023-06-10T12:03:10;97858.94;;;22.00;37.32
62524;BME280;53689;56.878;60.672;2023-06-10T12:05:38;97873.88;;;21.76;38.42
62524;BME280;53689;56.878;60.672;2023-06-10T12:08:10;97853.56;;;21.53;39.79
62524;BME280;53689;56.878;60.672;2023-06-10T12:10:41;97856.47;;;21.38;39.56
62524;BME280;53689;56.878;60.672;2023-06-10T12:13:08;97854.41;;;21.27;41.64
62524;BME280;53689;56.878;60.672;2023-06-10T12:15:36;97857.69;;;21.22;42.91
62524;BME280;53689;56.878;60.672;2023-06-10T12:18:07;97852.72;;;21.19;43.50
62524;BME280;53689;56.878;60.672;2023-06-10T12:20:35;97857.28;;;21.18;43.88
62524;BME280;53689;56.878;60.672;2023-06-10T12:23:10;97847.94;;;21.01;44.96
62524;BME280;53689;56.878;60.672;2023-06-10T12:25:39;97854.34;;;21.06;43.59
62524;BME280;53689;56.878;60.672;2023-06-10T12:28:09;97858.06;;;20.99;45.88
62524;BME280;53689;56.878;60.672;2023-06-10T12:30:37;97869.06;;;21.11;45.96
62524;BME280;53689;56.878;60.672;2023-06-10T12:33:15;97857.47;;;21.03;46.43
62524;BME280;53689;56.878;60.672;2023-06-10T12:35:47;97853.53;;;21.06;45.24
62524;BME280;53689;56.878;60.672;2023-06-10T12:38:17;97853.91;;;20.96;44.66
62524;BME280;53689;56.878;60.672;2023-06-10T12:40:49;97852.28;;;21.09;46.10
62524;BME280;53689;56.878;60.672;2023-06-10T12:43:20;97852.75;;;21.26;47.08
62524;BME280;53689;56.878;60.672;2023-06-10T12:45:48;97854.41;;;21.20;46.57
62524;BME280;53689;56.878;60.672;2023-06-10T12:48:21;97856.25;;;21.33;47.24
62524;BME280;53689;56.878;60.672;2023-06-10T12:50:50;97851.47;;;21.28;46.79
62524;BME280;53689;56.878;60.672;2023-06-10T12:53:18;97858.94;;;21.26;45.75
62524;BME280;53689;56.878;60.672;2023-06-10T12:55:45;97866.81;;;21.28;45.13
62524;BME280;53689;56.878;60.672;2023-06-10T12:58:14;97873.00;;;21.21;45.62
62524;BME280;53689;56.878;60.672;2023-06-10T13:00:42;97867.00;;;21.26;45.35
62524;BME280;53689;56.878;60.672;2023-06-10T13:03:12;97876.78;;;21.47;43.97